sensor_id;sensor_type;location;lat;lon;timestamp;P1;durP1;ratioP1;P2;durP2;ratioP2
7475;SDS011;3779;49.216;8.650;2023-08-31T00:32:50;2.03;;;1.45;;
7475;SDS011;3779;49.216;8.650;2023-08-31T00:35:36;3.22;;;1.77;;
7475;SDS011;3779;49.216;8.650;2023-08-31T00:38:22;1.38;;;1.27;;
7475;SDS011;3779;49.216;8.650;2023-08-31T00:41:07;3.40;;;1.80;;
7475;SDS011;3779;49.216;8.650;2023-08-31T00:43:54;1.77;;;1.40;;
7475;SDS011;3779;49.216;8.650;2023-08-31T00:46:40;1.98;;;1.30;;
7475;SDS011;3779;49.216;8.650;2023-08-31T00:49:26;1.80;;;1.50;;
7475;SDS011;3779;49.216;8.650;2023-08-31T00:52:11;1.80;;;1.70;;
7475;SDS011;3779;49.216;8.650;2023-08-31T00:54:57;1.30;;;1.20;;
7475;SDS011;3779;49.216;8.650;2023-08-31T00:57:44;1.60;;;1.38;;
7475;SDS011;3779;49.216;8.650;2023-08-31T01:01:17;1.58;;;1.48;;
7475;SDS011;3779;49.216;8.650;2023-08-31T01:13:07;1.98;;;1.15;;
7475;SDS011;3779;49.216;8.650;2023-08-31T01:15:59;1.40;;;1.30;;
7475;SDS011;3779;49.216;8.650;2023-08-31T01:18:49;1.30;;;1.20;;
7475;SDS011;3779;49.216;8.650;2023-08-31T01:21:39;1.30;;;1.20;;
7475;SDS011;3779;49.216;8.650;2023-08-31T01:24:27;1.20;;;1.10;;
7475;SDS011;3779;49.216;8.650;2023-08-31T01:27:13;1.75;;;1.23;;
7475;SDS011;3779;49.216;8.650;2023-08-31T01:30:00;4.07;;;1.92;;
7475;SDS011;3779;49.216;8.650;2023-08-31T01:32:47;1.63;;;1.40;;
7475;SDS011;3779;49.216;8.650;2023-08-31T01:35:36;2.15;;;1.80;;
7475;SDS011;3779;49.216;8.650;2023-08-31T03:58:45;1.33;;;1.23;;
7475;SDS011;3779;49.216;8.650;2023-08-31T04:01:31;2.10;;;1.67;;
7475;SDS011;3779;49.216;8.650;2023-08-31T04:04:16;1.70;;;1.60;;
7475;SDS011;3779;49.216;8.650;2023-08-31T04:07:02;2.97;;;2.00;;
7475;SDS011;3779;49.216;8.650;2023-08-31T04:09:51;1.95;;;1.45;;
7475;SDS011;3779;49.216;8.650;2023-08-31T04:12:37;2.10;;;1.90;;
7475;SDS011;3779;49.216;8.650;2023-08-31T04:15:24;2.88;;;2.25;;
7475;SDS011;3779;49.216;8.650;2023-08-31T04:18:11;3.88;;;2.30;;
7475;SDS011;3779;49.216;8.650;2023-08-31T04:20:56;2.20;;;2.00;;
7475;SDS011;3779;49.216;8.650;2023-08-31T04:23:44;2.20;;;2.00;;
7475;SDS011;3779;49.216;8.650;2023-08-31T04:26:30;2.10;;;1.90;;
7475;SDS011;3779;49.216;8.650;2023-08-31T04:29:16;1.83;;;1.50;;
7475;SDS011;3779;49.216;8.650;2023-08-31T04:32:02;2.75;;;2.20;;
7475;SDS011;3779;49.216;8.650;2023-08-31T04:34:48;2.70;;;2.08;;
7475;SDS011;3779;49.216;8.650;2023-08-31T04:37:34;3.03;;;2.28;;
7475;SDS011;3779;49.216;8.650;2023-08-31T04:40:20;4.13;;;2.17;;
7475;SDS011;3779;49.216;8.650;2023-08-31T04:43:06;2.30;;;2.10;;
7475;SDS011;3779;49.216;8.650;2023-08-31T04:45:52;2.67;;;2.10;;
7475;SDS011;3779;49.216;8.650;2023-08-31T04:48:38;1.48;;;1.38;;
7475;SDS011;3779;49.216;8.650;2023-08-31T04:51:28;4.47;;;2.25;;
7475;SDS011;3779;49.216;8.650;2023-08-31T04:54:15;1.50;;;1.40;;
7475;SDS011;3779;49.216;8.650;2023-08-31T04:57:01;2.13;;;1.67;;
7475;SDS011;3779;49.216;8.650;2023-08-31T04:59:48;3.97;;;1.55;;
7475;SDS011;3779;49.216;8.650;2023-08-31T05:02:34;2.35;;;1.92;;
7475;SDS011;3779;49.216;8.650;2023-08-31T05:05:20;1.35;;;1.23;;
7475;SDS011;3779;49.216;8.650;2023-08-31T05:08:07;1.90;;;1.70;;
7475;SDS011;3779;49.216;8.650;2023-08-31T05:10:53;2.17;;;1.98;;
7475;SDS011;3779;49.216;8.650;2023-08-31T05:13:39;2.05;;;1.45;;
7475;SDS011;3779;49.216;8.650;2023-08-31T05:16:27;2.58;;;1.98;;
7475;SDS011;3779;49.216;8.650;2023-08-31T05:19:13;1.98;;;1.70;;
7475;SDS011;3779;49.216;8.650;2023-08-31T05:21:58;2.63;;;2.28;;
7475;SDS011;3779;49.216;8.650;2023-08-31T05:24:44;4.03;;;2.00;;
7475;SDS011;3779;49.216;8.650;2023-08-31T05:27:30;2.33;;;1.80;;
7475;SDS011;3779;49.216;8.650;2023-08-31T05:30:16;1.85;;;1.60;;
7475;SDS011;3779;49.216;8.650;2023-08-31T05:33:02;1.80;;;1.70;;
7475;SDS011;3779;49.216;8.650;2023-08-31T05:35:51;1.48;;;1.38;;
7475;SDS011;3779;49.216;8.650;2023-08-31T05:38:37;2.85;;;1.95;;
7475;SDS011;3779;49.216;8.650;2023-08-31T05:41:23;1.63;;;1.52;;
7475;SDS011;3779;49.216;8.650;2023-08-31T05:44:10;2.30;;;1.30;;
7475;SDS011;3779;49.216;8.650;2023-08-31T05:46:56;1.40;;;1.27;;
7475;SDS011;3779;49.216;8.650;2023-08-31T05:49:41;2.00;;;1.50;;
7475;SDS011;3779;49.216;8.650;2023-08-31T05:52:27;1.65;;;1.40;;
7475;SDS011;3779;49.216;8.650;2023-08-31T05:55:13;1.92;;;1.70;;
7475;SDS011;3779;49.216;8.650;2023-08-31T05:57:59;1.58;;;1.40;;
7475;SDS011;3779;49.216;8.650;2023-08-31T06:00:47;1.92;;;1.40;;
7475;SDS011;3779;49.216;8.650;2023-08-31T06:03:33;2.38;;;1.88;;
7475;SDS011;3779;49.216;8.650;2023-08-31T06:06:19;1.70;;;1.40;;
7475;SDS011;3779;49.216;8.650;2023-08-31T06:09:04;2.25;;;1.40;;
7475;SDS011;3779;49.216;8.650;2023-08-31T06:11:52;2.83;;;1.40;;
7475;SDS011;3779;49.216;8.650;2023-08-31T06:14:38;1.70;;;1.42;;
7475;SDS011;3779;49.216;8.650;2023-08-31T06:17:23;3.47;;;1.48;;
7475;SDS011;3779;49.216;8.650;2023-08-31T08:37:38;1.08;;;1.00;;
7475;SDS011;3779;49.216;8.650;2023-08-31T08:40:24;1.95;;;1.17;;
7475;SDS011;3779;49.216;8.650;2023-08-31T08:43:10;1.35;;;1.10;;
7475;SDS011;3779;49.216;8.650;2023-08-31T08:45:56;1.08;;;0.90;;
7475;SDS011;3779;49.216;8.650;2023-08-31T08:48:50;3.10;;;1.25;;
7475;SDS011;3779;49.216;8.650;2023-08-31T08:51:36;1.90;;;1.10;;
7475;SDS011;3779;49.216;8.650;2023-08-31T08:54:22;1.00;;;1.00;;
7475;SDS011;3779;49.216;8.650;2023-08-31T08:57:08;2.10;;;1.10;;
7475;SDS011;3779;49.216;8.650;2023-08-31T08:59:54;1.30;;;1.10;;
7475;SDS011;3779;49.216;8.650;2023-08-31T09:02:40;1.85;;;1.45;;
7475;SDS011;3779;49.216;8.650;2023-08-31T09:05:26;1.77;;;1.08;;
7475;SDS011;3779;49.216;8.650;2023-08-31T09:08:15;1.30;;;1.00;;
7475;SDS011;3779;49.216;8.650;2023-08-31T09:11:01;1.27;;;0.98;;
7475;SDS011;3779;49.216;8.650;2023-08-31T09:13:46;1.20;;;1.10;;
7475;SDS011;3779;49.216;8.650;2023-08-31T09:16:33;1.17;;;1.08;;
7475;SDS011;3779;49.216;8.650;2023-08-31T09:19:23;0.95;;;0.95;;
7475;SDS011;3779;49.216;8.650;2023-08-31T09:22:12;1.45;;;1.20;;
7475;SDS011;3779;49.216;8.650;2023-08-31T09:24:58;1.02;;;1.00;;
7475;SDS011;3779;49.216;8.650;2023-08-31T09:27:44;0.90;;;0.90;;
7475;SDS011;3779;49.216;8.650;2023-08-31T09:30:34;1.80;;;1.15;;
7475;SDS011;3779;49.216;8.650;2023-08-31T09:33:25;1.10;;;1.00;;
7475;SDS011;3779;49.216;8.650;2023-08-31T09:36:11;1.10;;;0.95;;
7475;SDS011;3779;49.216;8.650;2023-08-31T09:38:57;1.40;;;1.00;;
7475;SDS011;3779;49.216;8.650;2023-08-31T09:41:53;1.20;;;1.00;;
7475;SDS011;3779;49.216;8.650;2023-08-31T09:44:40;1.52;;;1.10;;
7475;SDS011;3779;49.216;8.650;2023-08-31T09:47:30;1.00;;;0.95;;
7475;SDS011;3779;49.216;8.650;2023-08-31T13:21:10;1.40;;;1.30;;
7475;SDS011;3779;49.216;8.650;2023-08-31T13:23:55;1.23;;;1.13;;
7475;SDS011;3779;49.216;8.650;2023-08-31T13:26:41;1.10;;;0.95;;
7475;SDS011;3779;49.216;8.650;2023-08-31T14:49:04;2.15;;;1.15;;
7475;SDS011;3779;49.216;8.650;2023-08-31T14:51:49;1.15;;;0.98;;
7475;SDS011;3779;49.216;8.650;2023-08-31T14:54:35;1.45;;;1.35;;
7475;SDS011;3779;49.216;8.650;2023-08-31T14:57:21;1.23;;;1.10;;
7475;SDS011;3779;49.216;8.650;2023-08-31T15:00:07;1.48;;;1.10;;
7475;SDS011;3779;49.216;8.650;2023-08-31T15:02:54;2.08;;;1.13;;
7475;SDS011;3779;49.216;8.650;2023-08-31T15:05:40;1.30;;;1.20;;
7475;SDS011;3779;49.216;8.650;2023-08-31T15:08:36;1.73;;;1.40;;
7475;SDS011;3779;49.216;8.650;2023-08-31T15:11:27;1.30;;;1.20;;
7475;SDS011;3779;49.216;8.650;2023-08-31T15:14:14;3.30;;;1.83;;
7475;SDS011;3779;49.216;8.650;2023-08-31T15:16:59;1.27;;;1.13;;
7475;SDS011;3779;49.216;8.650;2023-08-31T15:19:45;1.80;;;1.30;;
7475;SDS011;3779;49.216;8.650;2023-08-31T15:22:31;1.10;;;1.00;;
7475;SDS011;3779;49.216;8.650;2023-08-31T15:25:17;1.60;;;1.30;;
7475;SDS011;3779;49.216;8.650;2023-08-31T15:28:03;1.30;;;1.20;;
7475;SDS011;3779;49.216;8.650;2023-08-31T15:30:49;1.30;;;1.20;;
7475;SDS011;3779;49.216;8.650;2023-08-31T15:33:35;1.52;;;1.20;;
7475;SDS011;3779;49.216;8.650;2023-08-31T15:36:21;1.20;;;1.10;;
7475;SDS011;3779;49.216;8.650;2023-08-31T15:39:07;1.20;;;1.10;;
7475;SDS011;3779;49.216;8.650;2023-08-31T15:41:53;1.20;;;1.10;;
7475;SDS011;3779;49.216;8.650;2023-08-31T15:44:42;1.20;;;1.10;;
7475;SDS011;3779;49.216;8.650;2023-08-31T15:47:28;2.40;;;1.23;;
7475;SDS011;3779;49.216;8.650;2023-08-31T15:50:14;1.00;;;1.00;;
7475;SDS011;3779;49.216;8.650;2023-08-31T15:52:59;1.30;;;1.20;;
7475;SDS011;3779;49.216;8.650;2023-08-31T15:55:48;1.42;;;1.30;;
7475;SDS011;3779;49.216;8.650;2023-08-31T17:07:55;2.28;;;1.30;;
7475;SDS011;3779;49.216;8.650;2023-08-31T17:10:41;1.88;;;1.55;;
7475;SDS011;3779;49.216;8.650;2023-08-31T17:13:27;1.30;;;1.10;;
7475;SDS011;3779;49.216;8.650;2023-08-31T17:16:13;1.35;;;1.15;;
7475;SDS011;3779;49.216;8.650;2023-08-31T17:18:59;1.40;;;1.30;;
7475;SDS011;3779;49.216;8.650;2023-08-31T17:21:45;2.03;;;1.20;;
7475;SDS011;3779;49.216;8.650;2023-08-31T17:24:30;1.65;;;1.40;;
7475;SDS011;3779;49.216;8.650;2023-08-31T17:27:18;1.73;;;1.30;;
7475;SDS011;3779;49.216;8.650;2023-08-31T17:30:05;1.75;;;1.30;;
7475;SDS011;3779;49.216;8.650;2023-08-31T17:32:52;1.98;;;1.40;;
7475;SDS011;3779;49.216;8.650;2023-08-31T17:35:37;2.22;;;1.50;;
7475;SDS011;3779;49.216;8.650;2023-08-31T17:38:23;1.40;;;1.30;;
7475;SDS011;3779;49.216;8.650;2023-08-31T17:41:09;1.40;;;1.30;;
7475;SDS011;3779;49.216;8.650;2023-08-31T17:43:55;2.08;;;1.63;;
7475;SDS011;3779;49.216;8.650;2023-08-31T17:46:41;1.60;;;1.40;;
7475;SDS011;3779;49.216;8.650;2023-08-31T17:49:27;1.85;;;1.42;;
7475;SDS011;3779;49.216;8.650;2023-08-31T17:52:13;1.75;;;1.40;;
7475;SDS011;3779;49.216;8.650;2023-08-31T17:54:58;2.88;;;1.50;;
7475;SDS011;3779;49.216;8.650;2023-08-31T17:57:44;1.60;;;1.50;;
7475;SDS011;3779;49.216;8.650;2023-08-31T18:00:30;3.22;;;1.42;;
7475;SDS011;3779;49.216;8.650;2023-08-31T18:03:16;3.10;;;1.38;;
7475;SDS011;3779;49.216;8.650;2023-08-31T18:06:02;2.05;;;1.35;;
7475;SDS011;3779;49.216;8.650;2023-08-31T18:08:48;1.67;;;1.30;;
7475;SDS011;3779;49.216;8.650;2023-08-31T18:11:34;2.08;;;1.27;;
7475;SDS011;3779;49.216;8.650;2023-08-31T18:14:20;1.90;;;1.38;;
7475;SDS011;3779;49.216;8.650;2023-08-31T18:17:06;2.45;;;1.30;;
7475;SDS011;3779;49.216;8.650;2023-08-31T19:33:29;2.60;;;1.50;;
7475;SDS011;3779;49.216;8.650;2023-08-31T19:36:15;2.85;;;1.20;;
7475;SDS011;3779;49.216;8.650;2023-08-31T19:39:01;2.55;;;1.65;;
7475;SDS011;3779;49.216;8.650;2023-08-31T19:41:47;3.38;;;2.10;;
7475;SDS011;3779;49.216;8.650;2023-08-31T19:44:33;3.03;;;2.20;;
7475;SDS011;3779;49.216;8.650;2023-08-31T19:47:18;3.15;;;1.40;;
7475;SDS011;3779;49.216;8.650;2023-08-31T19:50:04;2.03;;;1.50;;
7475;SDS011;3779;49.216;8.650;2023-08-31T19:52:51;1.65;;;1.23;;
7475;SDS011;3779;49.216;8.650;2023-08-31T19:55:37;1.75;;;1.50;;
7475;SDS011;3779;49.216;8.650;2023-08-31T19:58:23;2.17;;;1.30;;
7475;SDS011;3779;49.216;8.650;2023-08-31T20:01:09;3.33;;;2.08;;
7475;SDS011;3779;49.216;8.650;2023-08-31T20:03:54;3.45;;;2.42;;
7475;SDS011;3779;49.216;8.650;2023-08-31T20:06:40;3.35;;;2.13;;
7475;SDS011;3779;49.216;8.650;2023-08-31T20:09:26;1.45;;;1.35;;
7475;SDS011;3779;49.216;8.650;2023-08-31T20:12:12;1.90;;;1.30;;
7475;SDS011;3779;49.216;8.650;2023-08-31T20:14:58;1.50;;;1.30;;
7475;SDS011;3779;49.216;8.650;2023-08-31T20:17:43;3.33;;;1.90;;
7475;SDS011;3779;49.216;8.650;2023-08-31T20:20:29;2.00;;;1.80;;
7475;SDS011;3779;49.216;8.650;2023-08-31T20:23:15;2.47;;;1.77;;
7475;SDS011;3779;49.216;8.650;2023-08-31T20:26:01;2.00;;;1.40;;
7475;SDS011;3779;49.216;8.650;2023-08-31T20:28:47;1.58;;;1.40;;
7475;SDS011;3779;49.216;8.650;2023-08-31T20:31:33;1.80;;;1.50;;
7475;SDS011;3779;49.216;8.650;2023-08-31T20:34:21;2.60;;;1.50;;
7475;SDS011;3779;49.216;8.650;2023-08-31T20:37:07;1.60;;;1.50;;
7475;SDS011;3779;49.216;8.650;2023-08-31T20:39:53;1.85;;;1.30;;
7475;SDS011;3779;49.216;8.650;2023-08-31T20:42:38;1.45;;;1.25;;
7475;SDS011;3779;49.216;8.650;2023-08-31T20:45:24;1.80;;;1.40;;
7475;SDS011;3779;49.216;8.650;2023-08-31T20:48:11;3.15;;;1.52;;
7475;SDS011;3779;49.216;8.650;2023-08-31T20:51:05;3.25;;;1.60;;
7475;SDS011;3779;49.216;8.650;2023-08-31T20:53:52;1.85;;;1.50;;
7475;SDS011;3779;49.216;8.650;2023-08-31T20:56:38;4.80;;;2.33;;
7475;SDS011;3779;49.216;8.650;2023-08-31T20:59:24;3.67;;;2.03;;
7475;SDS011;3779;49.216;8.650;2023-08-31T21:02:10;3.05;;;1.92;;
7475;SDS011;3779;49.216;8.650;2023-08-31T21:04:56;1.92;;;1.60;;
7475;SDS011;3779;49.216;8.650;2023-08-31T21:07:44;2.25;;;1.30;;
7475;SDS011;3779;49.216;8.650;2023-08-31T21:10:29;3.75;;;1.58;;
7475;SDS011;3779;49.216;8.650;2023-08-31T21:13:15;2.38;;;1.52;;
7475;SDS011;3779;49.216;8.650;2023-08-31T21:16:02;1.98;;;1.50;;
7475;SDS011;3779;49.216;8.650;2023-08-31T21:18:49;1.50;;;1.40;;
7475;SDS011;3779;49.216;8.650;2023-08-31T21:21:35;1.38;;;1.27;;
7475;SDS011;3779;49.216;8.650;2023-08-31T21:24:21;3.83;;;1.50;;
7475;SDS011;3779;49.216;8.650;2023-08-31T21:27:07;2.42;;;1.50;;
7475;SDS011;3779;49.216;8.650;2023-08-31T21:29:53;1.40;;;1.30;;
7475;SDS011;3779;49.216;8.650;2023-08-31T21:32:39;4.40;;;1.70;;
7475;SDS011;3779;49.216;8.650;2023-08-31T21:35:24;2.35;;;1.60;;
7475;SDS011;3779;49.216;8.650;2023-08-31T21:38:10;2.33;;;1.40;;
7475;SDS011;3779;49.216;8.650;2023-08-31T21:40:59;3.42;;;1.58;;
7475;SDS011;3779;49.216;8.650;2023-08-31T21:43:49;1.40;;;1.30;;
7475;SDS011;3779;49.216;8.650;2023-08-31T21:46:35;2.42;;;1.40;;
